sensor_id;sensor_type;location;lat;lon;timestamp;pressure;altitude;pressure_sealevel;temperature
71463;BMP180;59266;52.608;13.260;2023-06-14T00:01:46;101450.00;;;13.20
71463;BMP180;59266;52.608;13.260;2023-06-14T00:04:14;101450.00;;;13.00
71463;BMP180;59266;52.608;13.260;2023-06-14T00:06:43;101453.00;;;13.10
71463;BMP180;59266;52.608;13.260;2023-06-14T00:09:12;101462.00;;;12.90
71463;BMP180;59266;52.608;13.260;2023-06-14T00:11:46;101450.00;;;12.80
71463;BMP180;59266;52.608;13.260;2023-06-14T00:14:13;101445.00;;;12.90
71463;BMP180;59266;52.608;13.260;2023-06-14T00:16:41;101448.00;;;12.90
71463;BMP180;59266;52.608;13.260;2023-06-14T00:19:09;101457.00;;;12.80
71463;BMP180;59266;52.608;13.260;2023-06-14T00:21:38;101452.00;;;12.80
71463;BMP180;59266;52.608;13.260;2023-06-14T00:24:05;101452.00;;;12.70
71463;BMP180;59266;52.608;13.260;2023-06-14T00:26:32;101452.00;;;12.60
71463;BMP180;59266;52.608;13.260;2023-06-14T00:28:59;101448.00;;;12.50
71463;BMP180;59266;52.608;13.260;2023-06-14T00:31:27;101450.00;;;12.50
71463;BMP180;59266;52.608;13.260;2023-06-14T00:33:54;101458.00;;;12.40
71463;BMP180;59266;52.608;13.260;2023-06-14T00:36:21;101459.00;;;12.40
71463;BMP180;59266;52.608;13.260;2023-06-14T00:38:47;101451.00;;;12.40
71463;BMP180;59266;52.608;13.260;2023-06-14T00:41:16;101453.00;;;12.20
71463;BMP180;59266;52.608;13.260;2023-06-14T00:43:45;101459.00;;;12.30
71463;BMP180;59266;52.608;13.260;2023-06-14T00:46:13;101460.00;;;12.30
71463;BMP180;59266;52.608;13.260;2023-06-14T00:48:40;101461.00;;;12.30
71463;BMP180;59266;52.608;13.260;2023-06-14T00:51:07;101462.00;;;12.20
71463;BMP180;59266;52.608;13.260;2023-06-14T00:53:36;101459.00;;;12.20
71463;BMP180;59266;52.608;13.260;2023-06-14T00:56:14;101453.00;;;12.10
71463;BMP180;59266;52.608;13.260;2023-06-14T00:58:42;101464.00;;;12.20
71463;BMP180;59266;52.608;13.260;2023-06-14T01:01:10;101464.00;;;12.00
71463;BMP180;59266;52.608;13.260;2023-06-14T01:03:38;101453.00;;;11.90
71463;BMP180;59266;52.608;13.260;2023-06-14T01:06:15;101458.00;;;12.00
71463;BMP180;59266;52.608;13.260;2023-06-14T01:09:10;101458.00;;;12.00
71463;BMP180;59266;52.608;13.260;2023-06-14T01:12:07;101453.00;;;12.00
71463;BMP180;59266;52.608;13.260;2023-06-14T01:14:36;101457.00;;;11.90
71463;BMP180;59266;52.608;13.260;2023-06-14T01:17:05;101459.00;;;11.90
71463;BMP180;59266;52.608;13.260;2023-06-14T01:19:34;101459.00;;;11.90
71463;BMP180;59266;52.608;13.260;2023-06-14T01:22:02;101459.00;;;11.70
71463;BMP180;59266;52.608;13.260;2023-06-14T01:24:28;101464.00;;;11.70
71463;BMP180;59266;52.608;13.260;2023-06-14T01:26:59;101458.00;;;11.70
71463;BMP180;59266;52.608;13.260;2023-06-14T01:29:26;101456.00;;;11.60
71463;BMP180;59266;52.608;13.260;2023-06-14T01:31:54;101457.00;;;11.50
71463;BMP180;59266;52.608;13.260;2023-06-14T01:34:22;101459.00;;;11.50
71463;BMP180;59266;52.608;13.260;2023-06-14T01:36:49;101450.00;;;11.60
71463;BMP180;59266;52.608;13.260;2023-06-14T01:39:17;101454.00;;;11.50
71463;BMP180;59266;52.608;13.260;2023-06-14T01:41:45;101438.00;;;11.50
71463;BMP180;59266;52.608;13.260;2023-06-14T01:44:14;101451.00;;;11.40
71463;BMP180;59266;52.608;13.260;2023-06-14T01:46:42;101448.00;;;11.40
71463;BMP180;59266;52.608;13.260;2023-06-14T01:49:10;101451.00;;;11.40
71463;BMP180;59266;52.608;13.260;2023-06-14T01:51:37;101449.00;;;11.30
71463;BMP180;59266;52.608;13.260;2023-06-14T01:54:05;101452.00;;;11.20
71463;BMP180;59266;52.608;13.260;2023-06-14T01:56:35;101456.00;;;11.30
71463;BMP180;59266;52.608;13.260;2023-06-14T01:59:02;101454.00;;;11.20
71463;BMP180;59266;52.608;13.260;2023-06-14T02:01:30;101461.00;;;11.20
71463;BMP180;59266;52.608;13.260;2023-06-14T02:04:01;101464.00;;;11.10
71463;BMP180;59266;52.608;13.260;2023-06-14T02:06:28;101455.00;;;11.10
71463;BMP180;59266;52.608;13.260;2023-06-14T02:08:56;101460.00;;;11.10
71463;BMP180;59266;52.608;13.260;2023-06-14T02:11:24;101464.00;;;11.00
71463;BMP180;59266;52.608;13.260;2023-06-14T02:13:51;101468.00;;;11.00
71463;BMP180;59266;52.608;13.260;2023-06-14T02:16:17;101463.00;;;11.00
71463;BMP180;59266;52.608;13.260;2023-06-14T02:18:46;101475.00;;;11.00
71463;BMP180;59266;52.608;13.260;2023-06-14T02:21:13;101469.00;;;11.00
71463;BMP180;59266;52.608;13.260;2023-06-14T02:23:40;101466.00;;;10.90
71463;BMP180;59266;52.608;13.260;2023-06-14T02:26:07;101469.00;;;10.80
71463;BMP180;59266;52.608;13.260;2023-06-14T02:28:35;101467.00;;;10.90
71463;BMP180;59266;52.608;13.260;2023-06-14T02:31:03;101466.00;;;10.90
71463;BMP180;59266;52.608;13.260;2023-06-14T02:33:34;101463.00;;;10.90
71463;BMP180;59266;52.608;13.260;2023-06-14T02:36:02;101465.00;;;10.90
71463;BMP180;59266;52.608;13.260;2023-06-14T02:38:30;101460.00;;;10.80
71463;BMP180;59266;52.608;13.260;2023-06-14T02:40:57;43786.00;;;10.80
71463;BMP180;59266;52.608;13.260;2023-06-14T02:43:25;101453.00;;;10.80
71463;BMP180;59266;52.608;13.260;2023-06-14T02:45:53;101466.00;;;10.90
71463;BMP180;59266;52.608;13.260;2023-06-14T02:48:20;101463.00;;;10.80
71463;BMP180;59266;52.608;13.260;2023-06-14T02:50:48;101471.00;;;10.80
71463;BMP180;59266;52.608;13.260;2023-06-14T02:53:15;101457.00;;;10.80
71463;BMP180;59266;52.608;13.260;2023-06-14T02:55:43;101462.00;;;10.80
71463;BMP180;59266;52.608;13.260;2023-06-14T02:58:10;101459.00;;;10.70
71463;BMP180;59266;52.608;13.260;2023-06-14T03:00:38;101465.00;;;10.80
71463;BMP180;59266;52.608;13.260;2023-06-14T03:03:07;101466.00;;;10.70
71463;BMP180;59266;52.608;13.260;2023-06-14T03:05:46;101461.00;;;10.70
71463;BMP180;59266;52.608;13.260;2023-06-14T03:08:14;101456.00;;;10.80
71463;BMP180;59266;52.608;13.260;2023-06-14T03:10:43;101455.00;;;10.70
71463;BMP180;59266;52.608;13.260;2023-06-14T03:13:10;101452.00;;;10.60
71463;BMP180;59266;52.608;13.260;2023-06-14T03:15:37;101446.00;;;10.80
71463;BMP180;59266;52.608;13.260;2023-06-14T03:18:05;101446.00;;;10.80
71463;BMP180;59266;52.608;13.260;2023-06-14T03:20:32;101447.00;;;10.80
71463;BMP180;59266;52.608;13.260;2023-06-14T03:23:02;101456.00;;;10.90
71463;BMP180;59266;52.608;13.260;2023-06-14T03:25:29;101459.00;;;10.90
71463;BMP180;59266;52.608;13.260;2023-06-14T03:27:59;101465.00;;;10.90
71463;BMP180;59266;52.608;13.260;2023-06-14T03:30:31;101467.00;;;10.90
71463;BMP180;59266;52.608;13.260;2023-06-14T03:32:59;101469.00;;;10.90
71463;BMP180;59266;52.608;13.260;2023-06-14T03:35:28;101462.00;;;11.00
71463;BMP180;59266;52.608;13.260;2023-06-14T03:37:55;101460.00;;;10.90
71463;BMP180;59266;52.608;13.260;2023-06-14T03:40:24;101463.00;;;11.00
71463;BMP180;59266;52.608;13.260;2023-06-14T03:42:54;101475.00;;;11.00
71463;BMP180;59266;52.608;13.260;2023-06-14T03:45:21;101472.00;;;11.10
71463;BMP180;59266;52.608;13.260;2023-06-14T03:47:48;101474.00;;;11.20
71463;BMP180;59266;52.608;13.260;2023-06-14T03:50:14;101477.00;;;11.20
71463;BMP180;59266;52.608;13.260;2023-06-14T03:52:44;101482.00;;;11.20
71463;BMP180;59266;52.608;13.260;2023-06-14T03:55:12;101476.00;;;11.30
71463;BMP180;59266;52.608;13.260;2023-06-14T03:57:43;101482.00;;;11.30
71463;BMP180;59266;52.608;13.260;2023-06-14T04:00:10;101485.00;;;11.40
71463;BMP180;59266;52.608;13.260;2023-06-14T04:02:40;101479.00;;;11.50
71463;BMP180;59266;52.608;13.260;2023-06-14T04:05:07;101484.00;;;11.50
71463;BMP180;59266;52.608;13.260;2023-06-14T04:07:36;101482.00;;;11.60
71463;BMP180;59266;52.608;13.260;2023-06-14T04:10:07;101487.00;;;11.70
71463;BMP180;59266;52.608;13.260;2023-06-14T04:12:34;101493.00;;;11.70
71463;BMP180;59266;52.608;13.260;2023-06-14T04:15:01;101492.00;;;11.80
71463;BMP180;59266;52.608;13.260;2023-06-14T04:17:47;101494.00;;;11.80
71463;BMP180;59266;52.608;13.260;2023-06-14T04:20:14;101490.00;;;11.90
71463;BMP180;59266;52.608;13.260;2023-06-14T04:22:41;101495.00;;;12.00
71463;BMP180;59266;52.608;13.260;2023-06-14T04:25:10;101495.00;;;12.00
71463;BMP180;59266;52.608;13.260;2023-06-14T04:27:37;101492.00;;;12.10
71463;BMP180;59266;52.608;13.260;2023-06-14T04:30:05;101491.00;;;12.20
71463;BMP180;59266;52.608;13.260;2023-06-14T04:32:32;101497.00;;;12.30
71463;BMP180;59266;52.608;13.260;2023-06-14T04:35:06;101494.00;;;12.40
71463;BMP180;59266;52.608;13.260;2023-06-14T04:37:33;101494.00;;;12.40
71463;BMP180;59266;52.608;13.260;2023-06-14T04:40:00;101488.00;;;12.60
71463;BMP180;59266;52.608;13.260;2023-06-14T04:42:27;101495.00;;;12.70
71463;BMP180;59266;52.608;13.260;2023-06-14T04:44:57;101487.00;;;12.60
71463;BMP180;59266;52.608;13.260;2023-06-14T04:47:25;101496.00;;;12.80
71463;BMP180;59266;52.608;13.260;2023-06-14T04:49:57;101498.00;;;12.80
71463;BMP180;59266;52.608;13.260;2023-06-14T04:52:24;101493.00;;;13.00
71463;BMP180;59266;52.608;13.260;2023-06-14T04:54:52;101498.00;;;13.00
71463;BMP180;59266;52.608;13.260;2023-06-14T04:57:22;101502.00;;;13.10
71463;BMP180;59266;52.608;13.260;2023-06-14T04:59:49;101501.00;;;13.40
71463;BMP180;59266;52.608;13.260;2023-06-14T05:02:22;101507.00;;;13.50
71463;BMP180;59266;52.608;13.260;2023-06-14T05:04:50;101509.00;;;13.50
71463;BMP180;59266;52.608;13.260;2023-06-14T05:07:16;101509.00;;;13.70
71463;BMP180;59266;52.608;13.260;2023-06-14T05:09:45;101501.00;;;13.90
71463;BMP180;59266;52.608;13.260;2023-06-14T05:12:14;101503.00;;;14.10
71463;BMP180;59266;52.608;13.260;2023-06-14T05:14:45;101507.00;;;14.20
71463;BMP180;59266;52.608;13.260;2023-06-14T05:17:12;101508.00;;;14.30
71463;BMP180;59266;52.608;13.260;2023-06-14T05:19:41;101505.00;;;14.40
71463;BMP180;59266;52.608;13.260;2023-06-14T05:22:08;101506.00;;;14.60
71463;BMP180;59266;52.608;13.260;2023-06-14T05:24:35;101507.00;;;14.70
71463;BMP180;59266;52.608;13.260;2023-06-14T05:27:02;101505.00;;;15.00
71463;BMP180;59266;52.608;13.260;2023-06-14T05:29:29;101507.00;;;15.20
71463;BMP180;59266;52.608;13.260;2023-06-14T05:31:56;101512.00;;;15.30
71463;BMP180;59266;52.608;13.260;2023-06-14T05:34:24;101517.00;;;15.40
71463;BMP180;59266;52.608;13.260;2023-06-14T05:36:51;101514.00;;;15.70
71463;BMP180;59266;52.608;13.260;2023-06-14T05:39:18;101519.00;;;15.80
71463;BMP180;59266;52.608;13.260;2023-06-14T05:41:44;101523.00;;;15.90
71463;BMP180;59266;52.608;13.260;2023-06-14T05:44:14;101524.00;;;16.20
71463;BMP180;59266;52.608;13.260;2023-06-14T05:46:44;101518.00;;;16.20
71463;BMP180;59266;52.608;13.260;2023-06-14T05:49:11;101518.00;;;16.30
71463;BMP180;59266;52.608;13.260;2023-06-14T05:51:40;101523.00;;;16.40
71463;BMP180;59266;52.608;13.260;2023-06-14T05:54:08;101521.00;;;16.50
71463;BMP180;59266;52.608;13.260;2023-06-14T05:56:39;101531.00;;;16.60
71463;BMP180;59266;52.608;13.260;2023-06-14T05:59:08;101537.00;;;16.80
71463;BMP180;59266;52.608;13.260;2023-06-14T06:01:34;101536.00;;;17.10
71463;BMP180;59266;52.608;13.260;2023-06-14T06:04:03;101538.00;;;17.40
71463;BMP180;59266;52.608;13.260;2023-06-14T06:06:30;101536.00;;;17.30
71463;BMP180;59266;52.608;13.260;2023-06-14T06:08:57;101535.00;;;17.30
71463;BMP180;59266;52.608;13.260;2023-06-14T06:11:24;101535.00;;;17.40
71463;BMP180;59266;52.608;13.260;2023-06-14T06:13:52;101543.00;;;17.60
71463;BMP180;59266;52.608;13.260;2023-06-14T06:16:20;101536.00;;;17.30
71463;BMP180;59266;52.608;13.260;2023-06-14T06:18:49;101533.00;;;17.30
71463;BMP180;59266;52.608;13.260;2023-06-14T06:21:16;101532.00;;;17.10
71463;BMP180;59266;52.608;13.260;2023-06-14T06:23:43;101538.00;;;17.20
71463;BMP180;59266;52.608;13.260;2023-06-14T06:26:10;101531.00;;;17.20
71463;BMP180;59266;52.608;13.260;2023-06-14T06:28:37;101534.00;;;17.40
71463;BMP180;59266;52.608;13.260;2023-06-14T06:31:05;101537.00;;;17.40
71463;BMP180;59266;52.608;13.260;2023-06-14T06:33:32;101539.00;;;17.50
71463;BMP180;59266;52.608;13.260;2023-06-14T06:36:01;101534.00;;;17.50
71463;BMP180;59266;52.608;13.260;2023-06-14T06:38:30;101538.00;;;17.80
71463;BMP180;59266;52.608;13.260;2023-06-14T06:40:57;101529.00;;;17.80
71463;BMP180;59266;52.608;13.260;2023-06-14T06:43:25;101530.00;;;18.00
71463;BMP180;59266;52.608;13.260;2023-06-14T06:45:52;101532.00;;;18.30
71463;BMP180;59266;52.608;13.260;2023-06-14T06:48:21;101533.00;;;18.50
71463;BMP180;59266;52.608;13.260;2023-06-14T06:50:52;101525.00;;;18.50
71463;BMP180;59266;52.608;13.260;2023-06-14T06:53:25;101532.00;;;18.10
71463;BMP180;59266;52.608;13.260;2023-06-14T06:56:10;101522.00;;;18.60
71463;BMP180;59266;52.608;13.260;2023-06-14T06:58:37;101532.00;;;18.70
71463;BMP180;59266;52.608;13.260;2023-06-14T07:01:10;101535.00;;;19.00
71463;BMP180;59266;52.608;13.260;2023-06-14T07:03:58;101531.00;;;19.10
71463;BMP180;59266;52.608;13.260;2023-06-14T07:06:28;101540.00;;;19.50
71463;BMP180;59266;52.608;13.260;2023-06-14T07:09:02;101534.00;;;19.40
71463;BMP180;59266;52.608;13.260;2023-06-14T07:11:41;101540.00;;;19.50
71463;BMP180;59266;52.608;13.260;2023-06-14T07:14:11;101541.00;;;19.50
71463;BMP180;59266;52.608;13.260;2023-06-14T07:16:38;101550.00;;;19.80
71463;BMP180;59266;52.608;13.260;2023-06-14T07:19:05;101552.00;;;20.20
71463;BMP180;59266;52.608;13.260;2023-06-14T07:21:33;101555.00;;;20.20
71463;BMP180;59266;52.608;13.260;2023-06-14T07:24:00;101560.00;;;20.20
71463;BMP180;59266;52.608;13.260;2023-06-14T07:26:32;101571.00;;;20.30
71463;BMP180;59266;52.608;13.260;2023-06-14T07:28:59;101564.00;;;20.40
71463;BMP180;59266;52.608;13.260;2023-06-14T07:31:27;101576.00;;;20.30
71463;BMP180;59266;52.608;13.260;2023-06-14T07:33:53;101567.00;;;20.40
71463;BMP180;59266;52.608;13.260;2023-06-14T07:36:22;101575.00;;;20.40
71463;BMP180;59266;52.608;13.260;2023-06-14T07:38:51;101564.00;;;20.30
71463;BMP180;59266;52.608;13.260;2023-06-14T07:41:18;101568.00;;;20.50
71463;BMP180;59266;52.608;13.260;2023-06-14T07:43:50;101557.00;;;20.70
71463;BMP180;59266;52.608;13.260;2023-06-14T07:46:16;101562.00;;;21.00
71463;BMP180;59266;52.608;13.260;2023-06-14T07:48:48;101565.00;;;21.20
71463;BMP180;59266;52.608;13.260;2023-06-14T07:51:17;101556.00;;;21.20
71463;BMP180;59266;52.608;13.260;2023-06-14T07:53:43;101558.00;;;21.80
71463;BMP180;59266;52.608;13.260;2023-06-14T07:56:10;101557.00;;;21.50
71463;BMP180;59266;52.608;13.260;2023-06-14T07:58:44;101552.00;;;22.40
71463;BMP180;59266;52.608;13.260;2023-06-14T08:01:10;101551.00;;;24.20
71463;BMP180;59266;52.608;13.260;2023-06-14T08:03:45;101561.00;;;25.10
71463;BMP180;59266;52.608;13.260;2023-06-14T08:06:12;101567.00;;;25.50
71463;BMP180;59266;52.608;13.260;2023-06-14T08:08:39;101550.00;;;25.20
71463;BMP180;59266;52.608;13.260;2023-06-14T08:11:06;101555.00;;;25.60
71463;BMP180;59266;52.608;13.260;2023-06-14T08:13:33;101540.00;;;25.50
71463;BMP180;59266;52.608;13.260;2023-06-14T08:16:00;101543.00;;;25.60
71463;BMP180;59266;52.608;13.260;2023-06-14T08:18:28;101536.00;;;25.90
71463;BMP180;59266;52.608;13.260;2023-06-14T08:20:59;101537.00;;;27.20
71463;BMP180;59266;52.608;13.260;2023-06-14T08:23:28;101548.00;;;26.90
71463;BMP180;59266;52.608;13.260;2023-06-14T08:25:54;101538.00;;;27.00
71463;BMP180;59266;52.608;13.260;2023-06-14T08:28:24;101534.00;;;27.60
71463;BMP180;59266;52.608;13.260;2023-06-14T08:30:51;101526.00;;;28.10
71463;BMP180;59266;52.608;13.260;2023-06-14T08:33:17;101552.00;;;27.10
71463;BMP180;59266;52.608;13.260;2023-06-14T08:35:44;101531.00;;;27.90
71463;BMP180;59266;52.608;13.260;2023-06-14T08:38:14;101538.00;;;29.70
71463;BMP180;59266;52.608;13.260;2023-06-14T08:40:45;101526.00;;;31.00
71463;BMP180;59266;52.608;13.260;2023-06-14T08:43:17;101523.00;;;33.10
71463;BMP180;59266;52.608;13.260;2023-06-14T08:45:48;101556.00;;;30.20
71463;BMP180;59266;52.608;13.260;2023-06-14T08:48:15;101552.00;;;28.90
71463;BMP180;59266;52.608;13.260;2023-06-14T08:50:46;101559.00;;;27.10
71463;BMP180;59266;52.608;13.260;2023-06-14T08:53:16;101554.00;;;26.50
71463;BMP180;59266;52.608;13.260;2023-06-14T08:55:46;101556.00;;;25.90
71463;BMP180;59266;52.608;13.260;2023-06-14T08:58:14;101556.00;;;26.30
71463;BMP180;59266;52.608;13.260;2023-06-14T09:00:42;101558.00;;;26.10
71463;BMP180;59266;52.608;13.260;2023-06-14T09:03:09;101550.00;;;26.30
71463;BMP180;59266;52.608;13.260;2023-06-14T09:05:40;101551.00;;;26.70
71463;BMP180;59266;52.608;13.260;2023-06-14T09:08:07;101550.00;;;26.00
71463;BMP180;59266;52.608;13.260;2023-06-14T09:10:35;101553.00;;;25.60
71463;BMP180;59266;52.608;13.260;2023-06-14T09:13:05;101560.00;;;25.70
71463;BMP180;59266;52.608;13.260;2023-06-14T09:15:34;101557.00;;;24.90
71463;BMP180;59266;52.608;13.260;2023-06-14T09:18:05;101557.00;;;25.20
71463;BMP180;59266;52.608;13.260;2023-06-14T09:20:34;101559.00;;;24.50
71463;BMP180;59266;52.608;13.260;2023-06-14T09:23:02;101547.00;;;24.40
71463;BMP180;59266;52.608;13.260;2023-06-14T09:25:41;101547.00;;;25.00
71463;BMP180;59266;52.608;13.260;2023-06-14T09:28:10;101547.00;;;25.30
71463;BMP180;59266;52.608;13.260;2023-06-14T09:30:40;101544.00;;;24.90
71463;BMP180;59266;52.608;13.260;2023-06-14T09:33:08;101544.00;;;25.70
71463;BMP180;59266;52.608;13.260;2023-06-14T09:35:35;101549.00;;;26.00
71463;BMP180;59266;52.608;13.260;2023-06-14T09:38:03;101546.00;;;26.20
71463;BMP180;59266;52.608;13.260;2023-06-14T09:40:33;101559.00;;;25.80
71463;BMP180;59266;52.608;13.260;2023-06-14T09:43:00;101554.00;;;26.20
71463;BMP180;59266;52.608;13.260;2023-06-14T09:45:28;101555.00;;;26.10
71463;BMP180;59266;52.608;13.260;2023-06-14T09:47:58;101556.00;;;26.20
71463;BMP180;59266;52.608;13.260;2023-06-14T09:50:27;101550.00;;;26.00
71463;BMP180;59266;52.608;13.260;2023-06-14T09:53:03;101549.00;;;26.10
71463;BMP180;59266;52.608;13.260;2023-06-14T09:55:34;101549.00;;;25.80
71463;BMP180;59266;52.608;13.260;2023-06-14T09:58:04;101550.00;;;25.10
71463;BMP180;59266;52.608;13.260;2023-06-14T10:00:32;101561.00;;;25.80
71463;BMP180;59266;52.608;13.260;2023-06-14T10:03:30;101545.00;;;25.00
71463;BMP180;59266;52.608;13.260;2023-06-14T10:06:17;101568.00;;;25.00
71463;BMP180;59266;52.608;13.260;2023-06-14T10:08:44;101559.00;;;25.40
71463;BMP180;59266;52.608;13.260;2023-06-14T10:11:18;101560.00;;;25.40
71463;BMP180;59266;52.608;13.260;2023-06-14T10:13:45;101562.00;;;25.20
71463;BMP180;59266;52.608;13.260;2023-06-14T10:16:20;101564.00;;;25.60
71463;BMP180;59266;52.608;13.260;2023-06-14T10:19:11;101554.00;;;25.80
71463;BMP180;59266;52.608;13.260;2023-06-14T10:21:58;101554.00;;;25.90
71463;BMP180;59266;52.608;13.260;2023-06-14T10:24:40;101558.00;;;25.50
71463;BMP180;59266;52.608;13.260;2023-06-14T10:27:13;101550.00;;;25.40
71463;BMP180;59266;52.608;13.260;2023-06-14T10:33:05;101543.00;;;25.30
71463;BMP180;59266;52.608;13.260;2023-06-14T10:35:35;101536.00;;;25.60
71463;BMP180;59266;52.608;13.260;2023-06-14T10:38:11;101536.00;;;25.90
71463;BMP180;59266;52.608;13.260;2023-06-14T10:40:41;101524.00;;;26.10
71463;BMP180;59266;52.608;13.260;2023-06-14T10:43:21;101526.00;;;26.60
71463;BMP180;59266;52.608;13.260;2023-06-14T10:46:15;101527.00;;;26.80
71463;BMP180;59266;52.608;13.260;2023-06-14T10:48:46;101529.00;;;27.00
71463;BMP180;59266;52.608;13.260;2023-06-14T10:51:19;101529.00;;;27.70
71463;BMP180;59266;52.608;13.260;2023-06-14T10:53:50;101532.00;;;27.00
71463;BMP180;59266;52.608;13.260;2023-06-14T10:56:27;101520.00;;;26.70
71463;BMP180;59266;52.608;13.260;2023-06-14T10:58:57;101520.00;;;26.40
71463;BMP180;59266;52.608;13.260;2023-06-14T11:01:42;101513.00;;;26.60
71463;BMP180;59266;52.608;13.260;2023-06-14T11:04:14;101508.00;;;27.30
71463;BMP180;59266;52.608;13.260;2023-06-14T11:06:50;101504.00;;;27.90
71463;BMP180;59266;52.608;13.260;2023-06-14T11:10:04;101511.00;;;26.60
71463;BMP180;59266;52.608;13.260;2023-06-14T11:12:34;101504.00;;;26.40
71463;BMP180;59266;52.608;13.260;2023-06-14T11:15:03;101502.00;;;27.20
71463;BMP180;59266;52.608;13.260;2023-06-14T11:17:32;101492.00;;;27.50
71463;BMP180;59266;52.608;13.260;2023-06-14T11:20:10;101468.00;;;28.00
71463;BMP180;59266;52.608;13.260;2023-06-14T11:22:44;101484.00;;;29.30
71463;BMP180;59266;52.608;13.260;2023-06-14T11:25:12;101488.00;;;28.90
71463;BMP180;59266;52.608;13.260;2023-06-14T11:27:41;101459.00;;;28.50
71463;BMP180;59266;52.608;13.260;2023-06-14T11:30:08;101484.00;;;28.60
71463;BMP180;59266;52.608;13.260;2023-06-14T11:32:38;101480.00;;;29.20
71463;BMP180;59266;52.608;13.260;2023-06-14T11:35:06;101496.00;;;28.30
71463;BMP180;59266;52.608;13.260;2023-06-14T11:37:33;101478.00;;;28.10
71463;BMP180;59266;52.608;13.260;2023-06-14T11:40:01;101490.00;;;28.50
71463;BMP180;59266;52.608;13.260;2023-06-14T11:42:27;101459.00;;;28.80
71463;BMP180;59266;52.608;13.260;2023-06-14T11:45:02;101482.00;;;29.50
71463;BMP180;59266;52.608;13.260;2023-06-14T11:47:36;101476.00;;;29.20
71463;BMP180;59266;52.608;13.260;2023-06-14T11:50:05;101476.00;;;28.10
71463;BMP180;59266;52.608;13.260;2023-06-14T11:52:32;101460.00;;;28.50
71463;BMP180;59266;52.608;13.260;2023-06-14T11:55:01;101456.00;;;28.50
71463;BMP180;59266;52.608;13.260;2023-06-14T11:57:35;101469.00;;;29.20
71463;BMP180;59266;52.608;13.260;2023-06-14T12:00:03;101463.00;;;28.90
71463;BMP180;59266;52.608;13.260;2023-06-14T12:02:33;101460.00;;;27.40
71463;BMP180;59266;52.608;13.260;2023-06-14T12:05:04;101462.00;;;28.00
71463;BMP180;59266;52.608;13.260;2023-06-14T12:07:33;101453.00;;;28.50
71463;BMP180;59266;52.608;13.260;2023-06-14T12:12:27;101438.00;;;28.80
71463;BMP180;59266;52.608;13.260;2023-06-14T12:14:55;101432.00;;;29.50
71463;BMP180;59266;52.608;13.260;2023-06-14T12:17:24;101448.00;;;29.10
71463;BMP180;59266;52.608;13.260;2023-06-14T12:19:51;101441.00;;;29.20
71463;BMP180;59266;52.608;13.260;2023-06-14T12:22:18;101434.00;;;28.40
71463;BMP180;59266;52.608;13.260;2023-06-14T12:24:47;101422.00;;;28.90
71463;BMP180;59266;52.608;13.260;2023-06-14T12:27:16;101407.00;;;29.20
71463;BMP180;59266;52.608;13.260;2023-06-14T12:29:58;101426.00;;;29.90
71463;BMP180;59266;52.608;13.260;2023-06-14T12:32:25;101428.00;;;29.50
71463;BMP180;59266;52.608;13.260;2023-06-14T12:34:56;101402.00;;;29.30
71463;BMP180;59266;52.608;13.260;2023-06-14T12:37:23;101399.00;;;29.90
71463;BMP180;59266;52.608;13.260;2023-06-14T12:39:53;101402.00;;;29.90
71463;BMP180;59266;52.608;13.260;2023-06-14T12:42:19;101405.00;;;29.60
71463;BMP180;59266;52.608;13.260;2023-06-14T12:44:46;101404.00;;;30.00
71463;BMP180;59266;52.608;13.260;2023-06-14T12:47:15;101401.00;;;29.60
71463;BMP180;59266;52.608;13.260;2023-06-14T12:49:44;101401.00;;;29.50
71463;BMP180;59266;52.608;13.260;2023-06-14T12:52:13;101386.00;;;29.90
71463;BMP180;59266;52.608;13.260;2023-06-14T12:54:43;101399.00;;;30.40
71463;BMP180;59266;52.608;13.260;2023-06-14T12:57:10;101394.00;;;30.40
71463;BMP180;59266;52.608;13.260;2023-06-14T12:59:38;101376.00;;;31.70
71463;BMP180;59266;52.608;13.260;2023-06-14T13:02:16;101386.00;;;30.90
71463;BMP180;59266;52.608;13.260;2023-06-14T13:04:44;101415.00;;;30.80
71463;BMP180;59266;52.608;13.260;2023-06-14T13:07:11;101414.00;;;30.30
71463;BMP180;59266;52.608;13.260;2023-06-14T13:09:38;101385.00;;;30.00
71463;BMP180;59266;52.608;13.260;2023-06-14T13:12:04;101370.00;;;30.00
71463;BMP180;59266;52.608;13.260;2023-06-14T13:14:31;101372.00;;;30.80
71463;BMP180;59266;52.608;13.260;2023-06-14T13:16:58;101376.00;;;30.90
71463;BMP180;59266;52.608;13.260;2023-06-14T13:19:25;101383.00;;;31.20
71463;BMP180;59266;52.608;13.260;2023-06-14T13:21:53;101411.00;;;31.10
71463;BMP180;59266;52.608;13.260;2023-06-14T13:24:20;101404.00;;;29.90
71463;BMP180;59266;52.608;13.260;2023-06-14T13:26:51;101379.00;;;30.00
71463;BMP180;59266;52.608;13.260;2023-06-14T13:29:18;101382.00;;;31.10
71463;BMP180;59266;52.608;13.260;2023-06-14T13:31:45;101372.00;;;30.70
71463;BMP180;59266;52.608;13.260;2023-06-14T13:34:12;101376.00;;;31.20
71463;BMP180;59266;52.608;13.260;2023-06-14T13:36:39;101371.00;;;31.00
71463;BMP180;59266;52.608;13.260;2023-06-14T13:39:06;101389.00;;;30.80
71463;BMP180;59266;52.608;13.260;2023-06-14T13:41:33;101398.00;;;30.10
71463;BMP180;59266;52.608;13.260;2023-06-14T13:44:03;101400.00;;;29.70
71463;BMP180;59266;52.608;13.260;2023-06-14T13:46:31;101372.00;;;29.80
71463;BMP180;59266;52.608;13.260;2023-06-14T13:49:00;101405.00;;;29.90
71463;BMP180;59266;52.608;13.260;2023-06-14T13:51:28;101402.00;;;29.20
71463;BMP180;59266;52.608;13.260;2023-06-14T13:53:56;101398.00;;;29.50
71463;BMP180;59266;52.608;13.260;2023-06-14T13:56:23;101404.00;;;29.40
71463;BMP180;59266;52.608;13.260;2023-06-14T13:58:50;101418.00;;;29.10
71463;BMP180;59266;52.608;13.260;2023-06-14T14:01:18;101417.00;;;27.70
71463;BMP180;59266;52.608;13.260;2023-06-14T14:03:48;101416.00;;;28.10